Time;durP1;ratioP1;P1;durP2;ratioP2;P2;SDS_P1;SDS_P2;PMS_P1;PMS_P2;Temp;Humidity;BMP_temperature;BMP_pressure;BME280_temperature;BME280_humidity;BME280_pressure;Samples;Min_cycle;Max_cycle;Signal;HPM_P1;HPM_P2
2023/12/08 00:02:00;;;;;;;11.40;9.30;;;;;;;-0.06;79.53;94996.53;4953545;29;20673;-84
2023/12/08 00:04:30;;;;;;;10.90;8.70;;;;;;;-0.07;79.72;95007.59;4954339;29;20205;-84
2023/12/08 00:06:58;;;;;;;11.80;8.37;;;;;;;-0.17;80.18;94994.06;4954138;29;20227;-84
2023/12/08 00:09:27;;;;;;;10.60;8.53;;;;;;;-0.18;80.68;95011.91;4971622;28;20235;-82
2023/12/08 00:11:53;;;;;;;10.87;8.40;;;;;;;-0.19;80.41;95016.16;4974208;28;20210;-83
2023/12/08 00:14:20;;;;;;;10.23;8.30;;;;;;;-0.16;80.77;95010.06;4972285;28;20204;-84
2023/12/08 00:16:46;;;;;;;9.50;8.00;;;;;;;-0.19;80.46;95003.50;4953368;29;20216;-83
2023/12/08 00:19:13;;;;;;;10.80;8.37;;;;;;;-0.11;80.04;95001.16;4950871;28;20227;-82
2023/12/08 00:21:40;;;;;;;11.83;7.97;;;;;;;-0.20;80.44;94983.44;4955033;29;20205;-82
2023/12/08 00:24:08;;;;;;;10.90;8.43;;;;;;;-0.23;80.42;94994.59;4954209;29;20208;-83
2023/12/08 00:26:34;;;;;;;9.93;8.30;;;;;;;-0.15;80.32;94989.69;4936671;29;20229;-84
2023/12/08 00:29:04;;;;;;;8.33;7.47;;;;;;;-0.07;79.92;94987.34;4936739;28;20203;-84
2023/12/08 00:31:31;;;;;;;10.50;8.00;;;;;;;-0.04;79.58;94976.19;4954731;29;20248;-83
2023/12/08 00:33:57;;;;;;;13.13;8.87;;;;;;;0.09;79.40;94971.69;4953968;28;20200;-83
2023/12/08 00:36:24;;;;;;;11.67;7.90;;;;;;;0.06;78.77;94945.84;4954777;28;20308;-82
2023/12/08 00:38:50;;;;;;;9.50;7.70;;;;;;;0.03;79.25;94939.28;4955143;29;20205;-83
2023/12/08 00:41:18;;;;;;;8.07;6.97;;;;;;;0.04;79.12;94929.97;4953563;29;20208;-83
2023/12/08 00:43:45;;;;;;;8.73;7.20;;;;;;;-0.02;79.02;94933.84;4954533;29;20236;-84
2023/12/08 00:46:12;;;;;;;8.50;6.70;;;;;;;-0.01;79.17;94930.38;4941167;29;20240;-83
2023/12/08 00:48:38;;;;;;;9.40;7.67;;;;;;;-0.08;79.61;94929.28;4934961;29;20695;-84
2023/12/08 00:51:06;;;;;;;6.73;5.90;;;;;;;-0.09;79.15;94930.22;4953119;29;20233;-83
2023/12/08 00:53:32;;;;;;;8.57;6.27;;;;;;;-0.20;79.00;94931.13;4944379;29;20201;-83
2023/12/08 00:55:59;;;;;;;6.47;5.57;;;;;;;-0.17;79.07;94922.44;4935715;29;20208;-83
2023/12/08 00:58:30;;;;;;;6.77;5.50;;;;;;;-0.24;79.04;94912.06;4935327;29;20233;-82
2023/12/08 01:00:56;;;;;;;6.83;5.63;;;;;;;-0.26;79.08;94913.09;4935351;29;20260;-82
2023/12/08 01:03:23;;;;;;;6.57;5.40;;;;;;;-0.18;78.77;94906.47;4948519;29;20193;-83
2023/12/08 01:05:49;;;;;;;7.50;5.43;;;;;;;-0.16;78.55;94888.63;4953571;29;20225;-82
2023/12/08 01:08:15;;;;;;;6.67;5.30;;;;;;;-0.26;78.14;94878.50;4955596;28;20668;-83
2023/12/08 01:10:42;;;;;;;7.63;4.93;;;;;;;-0.24;78.90;94901.13;4974914;28;20224;-84
2023/12/08 01:13:09;;;;;;;7.17;5.87;;;;;;;-0.18;78.45;94896.34;4956368;28;20777;-84
2023/12/08 01:15:39;;;;;;;8.00;5.57;;;;;;;-0.13;78.04;94880.78;4935695;29;20212;-83
2023/12/08 01:18:06;;;;;;;6.20;5.10;;;;;;;-0.07;77.75;94865.91;4936029;29;20293;-83
2023/12/08 01:20:33;;;;;;;5.43;4.80;;;;;;;0.04;77.35;94861.66;4935596;29;20221;-82
2023/12/08 01:22:59;;;;;;;6.30;5.20;;;;;;;0.16;76.82;94843.72;4948479;28;20287;-83
2023/12/08 01:25:25;;;;;;;7.03;5.33;;;;;;;0.28;75.98;94824.13;4948183;28;20576;-82
2023/12/08 01:27:55;;;;;;;5.90;5.03;;;;;;;0.35;75.38;94797.38;4952522;29;20683;-84
2023/12/08 01:30:22;;;;;;;5.77;4.43;;;;;;;0.20;75.09;94768.31;4955145;28;20492;-84
2023/12/08 01:32:50;;;;;;;5.70;5.13;;;;;;;0.18;74.74;94757.53;4958997;28;20215;-83
2023/12/08 01:35:16;;;;;;;6.60;4.93;;;;;;;0.19;75.25;94759.91;4957838;28;20240;-82
2023/12/08 01:37:42;;;;;;;4.93;4.17;;;;;;;0.08;75.52;94766.84;4954486;28;20201;-83
2023/12/08 01:40:11;;;;;;;6.27;4.53;;;;;;;0.12;75.55;94770.72;4957036;29;20228;-83
2023/12/08 01:42:38;;;;;;;5.13;4.63;;;;;;;0.05;75.66;94772.97;4958580;29;20292;-83
2023/12/08 01:45:08;;;;;;;5.63;4.70;;;;;;;0.07;75.83;94773.63;4958247;29;20327;-83
2023/12/08 01:47:35;;;;;;;6.23;4.60;;;;;;;0.08;75.49;94794.69;4957865;29;20252;-83
2023/12/08 01:50:04;;;;;;;6.90;5.00;;;;;;;0.08;75.46;94769.38;4949296;29;20228;-83
2023/12/08 01:52:31;;;;;;;5.77;4.87;;;;;;;0.18;75.35;94777.78;4957734;29;20209;-83
2023/12/08 01:55:00;;;;;;;5.13;4.50;;;;;;;0.32;75.23;94773.13;4956082;29;20212;-82
2023/12/08 01:57:29;;;;;;;5.77;4.80;;;;;;;0.24;74.47;94732.47;4949569;29;20595;-84
2023/12/08 01:59:57;;;;;;;5.80;4.80;;;;;;;0.12;74.73;94725.97;4938448;29;20260;-84
2023/12/08 02:02:24;;;;;;;6.07;4.83;;;;;;;0.23;74.66;94732.59;4938397;29;20209;-82
2023/12/08 02:04:54;;;;;;;5.73;4.30;;;;;;;0.28;74.06;94717.81;4938521;29;20216;-83
2023/12/08 02:07:22;;;;;;;5.57;4.93;;;;;;;0.26;73.87;94712.09;4938290;28;20218;-84
2023/12/08 02:09:48;;;;;;;5.57;4.40;;;;;;;0.21;74.04;94702.38;4972928;28;20238;-84
2023/12/08 02:12:19;;;;;;;6.37;4.70;;;;;;;0.20;74.33;94723.53;4952951;29;20560;-84
2023/12/08 02:14:50;;;;;;;7.53;5.00;;;;;;;0.13;74.20;94714.91;4938862;29;20201;-83
2023/12/08 02:17:22;;;;;;;5.10;4.57;;;;;;;0.12;74.33;94715.03;4938986;29;20205;-82
2023/12/08 02:19:50;;;;;;;5.40;4.80;;;;;;;0.15;74.57;94722.38;4937793;29;20230;-83
2023/12/08 02:22:24;;;;;;;6.60;4.60;;;;;;;0.13;74.22;94707.31;4944634;28;20213;-83
2023/12/08 02:24:52;;;;;;;6.00;4.57;;;;;;;0.15;74.36;94704.66;4957736;28;20193;-85
2023/12/08 02:27:19;;;;;;;5.87;4.43;;;;;;;0.12;74.26;94702.38;4956755;28;20235;-84
2023/12/08 02:29:45;;;;;;;5.53;4.47;;;;;;;0.09;74.61;94702.66;4964681;29;20246;-83
2023/12/08 02:32:22;;;;;;;4.43;4.00;;;;;;;0.13;74.68;94709.84;4960508;29;20216;-84
2023/12/08 02:34:50;;;;;;;5.57;4.33;;;;;;;0.27;74.54;94711.16;4960569;29;20236;-84
2023/12/08 02:37:18;;;;;;;4.63;4.00;;;;;;;0.30;74.46;94691.44;4959310;29;20197;-83
2023/12/08 02:39:48;;;;;;;5.87;4.53;;;;;;;0.23;74.30;94676.91;4959435;29;20225;-83
2023/12/08 02:42:16;;;;;;;5.00;4.33;;;;;;;0.25;74.20;94677.59;4948053;29;20284;-83
2023/12/08 02:44:45;;;;;;;5.27;4.37;;;;;;;0.17;74.54;94682.53;4959499;29;20662;-84
2023/12/08 02:47:12;;;;;;;7.00;4.70;;;;;;;0.27;74.28;94691.72;4948884;29;20221;-84
2023/12/08 02:49:38;;;;;;;5.93;4.53;;;;;;;0.45;74.19;94684.22;4948079;29;20224;-84
2023/12/08 02:52:05;;;;;;;5.87;4.13;;;;;;;0.54;73.67;94664.88;4953793;29;20222;-84
2023/12/08 02:54:31;;;;;;;5.63;4.33;;;;;;;0.66;73.05;94659.50;4939673;29;20212;-84
2023/12/08 02:56:58;;;;;;;6.03;4.57;;;;;;;0.77;72.61;94645.84;4940091;29;20208;-83
2023/12/08 02:59:25;;;;;;;6.37;4.13;;;;;;;0.91;72.24;94624.31;4949318;29;20605;-84
2023/12/08 03:01:55;;;;;;;6.00;4.47;;;;;;;0.99;71.97;94606.66;4955881;29;20201;-83
2023/12/08 03:04:21;;;;;;;4.80;4.30;;;;;;;0.85;71.72;94584.34;4957245;29;20216;-84
2023/12/08 03:06:48;;;;;;;5.60;4.37;;;;;;;0.83;71.41;94578.63;4951168;29;20324;-84
2023/12/08 03:09:15;;;;;;;5.27;4.60;;;;;;;0.84;71.80;94572.63;4951573;28;20237;-84
2023/12/08 03:11:41;;;;;;;4.90;4.27;;;;;;;0.73;71.99;94586.28;4938096;29;20209;-83
2023/12/08 03:14:08;;;;;;;5.27;4.27;;;;;;;0.67;71.99;94590.16;4937391;29;20209;-83
2023/12/08 03:16:36;;;;;;;4.60;4.20;;;;;;;0.65;71.74;94594.56;4954141;29;20210;-83
2023/12/08 03:19:03;;;;;;;4.73;4.10;;;;;;;0.57;71.92;94573.44;4956416;28;20201;-84
2023/12/08 03:21:29;;;;;;;5.53;3.93;;;;;;;0.56;72.81;94610.63;4956895;28;20197;-84
2023/12/08 03:23:56;;;;;;;5.60;4.23;;;;;;;0.54;72.25;94606.63;4939283;28;20208;-84
2023/12/08 03:26:22;;;;;;;5.07;4.57;;;;;;;0.38;71.98;94603.91;4937210;29;20228;-83
2023/12/08 03:28:48;;;;;;;5.83;4.63;;;;;;;0.35;72.73;94620.16;4937213;29;20205;-82
2023/12/08 03:31:23;;;;;;;7.93;4.47;;;;;;;0.46;72.46;94642.75;4944667;29;20239;-84
2023/12/08 03:33:50;;;;;;;5.63;4.40;;;;;;;0.49;72.54;94629.03;4955943;29;20203;-83
2023/12/08 03:36:17;;;;;;;4.97;4.37;;;;;;;0.44;72.37;94613.44;4954615;28;20204;-84
2023/12/08 03:38:44;;;;;;;6.93;4.77;;;;;;;0.46;72.64;94634.38;4940990;29;20189;-84
2023/12/08 03:41:10;;;;;;;4.87;4.33;;;;;;;0.54;73.06;94642.88;4955761;29;20229;-83
2023/12/08 03:43:37;;;;;;;5.47;4.70;;;;;;;0.53;72.97;94635.44;4956322;29;20205;-83
2023/12/08 03:46:03;;;;;;;5.27;4.50;;;;;;;0.50;72.87;94617.97;4954048;29;20196;-83
2023/12/08 03:48:33;;;;;;;5.97;4.63;;;;;;;0.58;72.93;94630.72;4946598;29;20212;-83
2023/12/08 03:51:00;;;;;;;5.37;4.33;;;;;;;0.68;72.56;94613.75;4954964;29;20223;-84
2023/12/08 03:53:26;;;;;;;5.00;4.00;;;;;;;0.64;72.05;94584.59;4954476;28;20293;-83
2023/12/08 03:55:53;;;;;;;4.90;4.37;;;;;;;0.64;71.91;94570.19;4938124;29;20198;-83
2023/12/08 03:58:19;;;;;;;5.20;4.17;;;;;;;0.66;72.17;94565.78;4935883;29;20201;-84
2023/12/08 04:00:46;;;;;;;5.37;4.50;;;;;;;0.70;71.94;94553.63;4936179;29;20226;-83
2023/12/08 04:03:12;;;;;;;4.97;4.30;;;;;;;0.61;72.00;94551.94;4942157;29;20207;-83
2023/12/08 04:05:39;;;;;;;4.50;4.10;;;;;;;0.62;72.00;94551.81;4956791;29;20236;-83
2023/12/08 04:08:06;;;;;;;4.33;3.77;;;;;;;0.50;71.37;94531.88;4938826;28;20224;-84
2023/12/08 04:10:33;;;;;;;4.33;3.70;;;;;;;0.33;72.41;94563.81;4937943;29;20237;-82
2023/12/08 04:12:59;;;;;;;4.53;4.03;;;;;;;0.11;73.17;94572.53;4944941;29;20201;-83
2023/12/08 04:15:26;;;;;;;4.53;3.63;;;;;;;0.17;73.38;94589.72;4956176;28;20208;-84
2023/12/08 04:17:52;;;;;;;4.13;3.37;;;;;;;0.15;73.30;94581.47;4956265;28;20284;-83
2023/12/08 04:20:19;;;;;;;4.47;3.77;;;;;;;0.23;73.28;94580.75;4952916;28;20223;-83
2023/12/08 04:22:47;;;;;;;5.17;3.90;;;;;;;0.17;72.98;94572.00;4956088;29;20219;-83
2023/12/08 04:25:15;;;;;;;4.37;3.40;;;;;;;0.15;73.45;94571.34;4956806;29;20205;-83
2023/12/08 04:27:42;;;;;;;3.63;3.20;;;;;;;0.08;73.31;94541.66;4940226;29;20248;-83
2023/12/08 04:30:09;;;;;;;4.60;3.90;;;;;;;0.00;73.33;94548.19;4935441;29;20236;-83
2023/12/08 04:32:35;;;;;;;3.83;3.43;;;;;;;0.04;73.98;94555.50;4936473;29;20213;-83
2023/12/08 04:35:02;;;;;;;4.53;3.87;;;;;;;0.11;74.33;94597.03;4937126;29;20209;-83
2023/12/08 04:37:29;;;;;;;3.80;3.40;;;;;;;0.31;73.13;94578.34;4948371;29;20307;-84
2023/12/08 04:39:55;;;;;;;4.87;3.63;;;;;;;0.52;72.58;94553.59;4955612;29;20225;-83
2023/12/08 04:42:23;;;;;;;3.57;3.27;;;;;;;0.57;72.30;94533.72;4956042;29;20208;-82
2023/12/08 04:44:49;;;;;;;4.40;3.50;;;;;;;0.58;71.73;94520.09;4956380;29;20204;-82
2023/12/08 04:47:16;;;;;;;4.13;3.37;;;;;;;0.61;71.63;94512.22;4955042;28;20221;-83
2023/12/08 04:49:42;;;;;;;4.43;3.73;;;;;;;0.74;71.46;94508.56;4948001;29;20225;-83
2023/12/08 04:52:09;;;;;;;3.97;3.57;;;;;;;0.80;71.12;94496.09;4954110;29;20209;-83
2023/12/08 04:54:38;;;;;;;4.40;3.60;;;;;;;0.86;70.92;94477.81;4956001;28;20206;-83
2023/12/08 04:57:05;;;;;;;3.90;3.50;;;;;;;0.87;70.88;94487.00;4936940;29;20209;-84
2023/12/08 04:59:32;;;;;;;4.17;3.57;;;;;;;0.98;71.38;94491.84;4935516;29;20245;-83
2023/12/08 05:01:59;;;;;;;4.20;3.80;;;;;;;1.11;70.51;94476.28;4942786;29;20203;-83
2023/12/08 05:04:25;;;;;;;4.90;4.20;;;;;;;1.24;70.30;94489.38;4953145;28;20208;-83
2023/12/08 05:06:52;;;;;;;4.23;3.60;;;;;;;1.36;70.18;94492.44;4938815;29;20221;-84
2023/12/08 05:09:22;;;;;;;5.20;3.77;;;;;;;1.40;69.71;94473.47;4955982;28;20240;-83
2023/12/08 05:11:48;;;;;;;4.33;3.80;;;;;;;1.44;68.81;94433.41;4957865;28;20211;-83
2023/12/08 05:14:15;;;;;;;4.73;3.70;;;;;;;1.47;68.87;94430.56;4949619;28;20208;-83
2023/12/08 05:16:43;;;;;;;4.00;3.47;;;;;;;1.54;68.24;94426.50;4940690;29;20201;-83
2023/12/08 05:19:09;;;;;;;4.63;3.50;;;;;;;1.58;68.51;94426.03;4940664;29;20213;-83
2023/12/08 05:21:36;;;;;;;4.30;3.90;;;;;;;1.60;67.97;94408.94;4945843;29;20205;-84
2023/12/08 05:24:04;;;;;;;4.63;4.10;;;;;;;1.57;68.73;94454.88;4952061;29;20205;-83
2023/12/08 05:26:33;;;;;;;3.97;3.57;;;;;;;1.57;68.57;94443.94;4955226;29;20224;-84
2023/12/08 05:29:00;;;;;;;4.50;3.70;;;;;;;1.56;68.61;94476.13;4960352;29;20213;-84
2023/12/08 05:31:26;;;;;;;4.43;3.80;;;;;;;1.58;68.66;94468.34;4959420;29;20232;-84
2023/12/08 05:33:54;;;;;;;4.43;4.00;;;;;;;1.54;68.51;94462.78;4960345;29;20201;-84
2023/12/08 05:36:22;;;;;;;4.13;3.73;;;;;;;1.55;68.53;94461.84;4958482;28;20545;-83
2023/12/08 05:38:48;;;;;;;4.80;4.30;;;;;;;1.60;68.39;94459.66;4962025;28;20208;-84
2023/12/08 05:41:19;;;;;;;7.00;4.57;;;;;;;1.61;68.14;94461.25;4946980;29;20816;-83
2023/12/08 05:43:49;;;;;;;6.00;5.00;;;;;;;1.64;69.22;94493.13;4958208;29;20287;-84
2023/12/08 05:46:15;;;;;;;5.77;5.00;;;;;;;1.68;68.02;94453.84;4950267;28;20201;-83
2023/12/08 05:48:42;;;;;;;5.27;4.10;;;;;;;1.66;67.75;94412.63;4951285;28;20253;-84
2023/12/08 05:51:15;;;;;;;4.60;3.53;;;;;;;1.69;67.27;94417.38;4959219;29;20227;-84
2023/12/08 05:53:41;;;;;;;4.87;3.97;;;;;;;1.73;67.25;94413.59;4958870;28;20685;-84
2023/12/08 05:56:09;;;;;;;4.57;4.10;;;;;;;1.78;67.32;94408.06;4948881;29;20204;-83
2023/12/08 05:58:37;;;;;;;5.00;4.50;;;;;;;1.81;67.06;94400.94;4951959;29;20231;-84
2023/12/08 06:01:07;;;;;;;4.47;3.87;;;;;;;1.72;67.37;94432.31;4948718;29;20304;-84
2023/12/08 06:03:35;;;;;;;4.73;4.17;;;;;;;1.78;67.68;94433.44;4949078;29;20204;-84
2023/12/08 06:06:12;;;;;;;5.60;4.70;;;;;;;1.65;67.64;94426.25;4951115;29;20194;-83
2023/12/08 06:08:40;;;;;;;4.97;4.33;;;;;;;1.69;68.14;94470.66;4943145;28;20224;-84
2023/12/08 06:11:07;;;;;;;6.80;5.17;;;;;;;1.68;68.23;94482.53;4995544;28;20219;-84
2023/12/08 06:13:33;;;;;;;5.27;4.73;;;;;;;1.72;68.57;94516.81;4968826;28;20719;-84
2023/12/08 06:16:00;;;;;;;6.10;4.80;;;;;;;1.78;68.64;94524.78;4967038;28;20234;-83
2023/12/08 06:18:27;;;;;;;6.20;5.20;;;;;;;1.80;68.82;94543.19;4968071;28;20395;-83
2023/12/08 06:20:53;;;;;;;6.77;5.40;;;;;;;1.78;68.72;94550.94;4967281;28;20220;-83
2023/12/08 06:23:26;;;;;;;8.13;6.73;;;;;;;1.65;69.19;94575.91;4971414;28;20206;-85
2023/12/08 06:25:53;;;;;;;8.83;6.77;;;;;;;1.52;69.71;94609.25;4978564;28;20204;-84
2023/12/08 06:28:20;;;;;;;8.20;6.80;;;;;;;1.47;69.90;94621.56;4975772;28;20605;-83
2023/12/08 06:30:50;;;;;;;8.80;7.43;;;;;;;1.49;70.34;94656.94;4977491;28;20235;-84
2023/12/08 06:33:19;;;;;;;10.90;8.87;;;;;;;1.44;70.50;94675.09;4976770;28;20338;-82
2023/12/08 06:35:46;;;;;;;10.10;8.40;;;;;;;1.41;71.00;94679.66;4977588;28;20199;-83
2023/12/08 06:38:13;;;;;;;9.17;7.47;;;;;;;1.41;71.13;94700.75;4965162;28;20683;-84
2023/12/08 06:40:45;;;;;;;10.87;8.23;;;;;;;1.36;73.83;94784.84;4958820;28;20232;-85
2023/12/08 06:43:25;;;;;;;10.23;8.23;;;;;;;1.32;73.23;94786.09;4959468;28;20204;-84
2023/12/08 06:45:51;;;;;;;10.53;8.77;;;;;;;1.31;72.82;94781.97;4972760;28;20204;-85
2023/12/08 06:48:18;;;;;;;11.60;9.27;;;;;;;1.33;72.01;94743.78;4972337;28;20982;-84
2023/12/08 06:50:46;;;;;;;11.50;8.50;;;;;;;1.21;72.67;94752.50;4975275;28;20315;-84
2023/12/08 06:53:13;;;;;;;10.23;8.43;;;;;;;1.22;72.43;94741.41;4969733;28;20722;-84
2023/12/08 06:55:45;;;;;;;9.37;8.10;;;;;;;1.18;71.65;94687.66;4958551;29;20478;-84
2023/12/08 06:58:12;;;;;;;18.87;15.27;;;;;;;1.25;71.93;94703.13;4971835;28;20227;-85
2023/12/08 07:00:39;;;;;;;18.47;13.47;;;;;;;1.29;71.69;94692.56;4979162;28;20224;-85
2023/12/08 07:03:06;;;;;;;11.67;9.17;;;;;;;1.19;71.71;94693.53;4975461;28;20204;-84
2023/12/08 07:05:47;;;;;;;11.07;8.23;;;;;;;1.28;71.83;94701.09;4983757;28;20682;-83
2023/12/08 07:08:13;;;;;;;9.27;8.00;;;;;;;1.38;71.39;94690.88;4977063;28;20634;-84
2023/12/08 07:10:43;;;;;;;11.83;8.43;;;;;;;1.42;70.96;94661.78;4984130;28;20283;-85
2023/12/08 07:13:14;;;;;;;8.73;7.50;;;;;;;1.49;70.97;94662.00;4980338;28;20204;-85
2023/12/08 07:16:00;;;;;;;9.87;7.97;;;;;;;1.52;70.95;94666.78;4981311;28;20258;-85
2023/12/08 07:18:29;;;;;;;8.53;7.40;;;;;;;1.51;70.56;94650.78;4979350;28;20210;-85
2023/12/08 07:21:00;;;;;;;11.00;8.83;;;;;;;1.55;70.35;94656.34;4970088;28;20718;-84
2023/12/08 07:23:31;;;;;;;11.07;8.23;;;;;;;1.60;70.23;94644.81;4967541;28;20293;-84
2023/12/08 07:25:58;;;;;;;9.20;7.93;;;;;;;1.60;70.59;94649.91;4961919;28;20284;-85
2023/12/08 07:28:24;;;;;;;9.70;8.10;;;;;;;1.60;70.31;94646.56;4962316;28;20243;-84
2023/12/08 07:31:29;;;;;;;10.20;8.13;;;;;;;1.62;69.98;94644.69;4978724;28;20227;-84
2023/12/08 07:34:09;;;;;;;10.83;8.70;;;;;;;1.62;70.07;94635.34;4964811;28;20200;-84
2023/12/08 07:36:37;;;;;;;9.27;8.00;;;;;;;1.55;70.20;94626.69;4968195;28;20629;-84
2023/12/08 07:39:04;;;;;;;10.87;8.37;;;;;;;1.58;70.40;94650.97;4978509;28;20231;-84
2023/12/08 07:41:30;;;;;;;10.23;7.80;;;;;;;1.65;70.59;94655.34;4970758;28;20291;-84
2023/12/08 07:43:57;;;;;;;10.63;8.17;;;;;;;1.71;70.57;94643.81;4970176;28;20224;-84
2023/12/08 07:46:25;;;;;;;13.87;9.07;;;;;;;1.72;70.13;94648.75;4961048;28;20201;-85
2023/12/08 07:48:54;;;;;;;12.93;10.27;;;;;;;1.76;70.66;94661.94;4958976;28;20271;-84
2023/12/08 07:51:21;;;;;;;12.50;10.90;;;;;;;1.81;70.32;94651.34;4976289;28;20291;-84
2023/12/08 07:53:48;;;;;;;12.80;9.63;;;;;;;1.87;70.53;94659.19;4984566;28;20192;-84
2023/12/08 07:56:15;;;;;;;8.60;7.70;;;;;;;1.95;70.14;94645.75;4982167;28;20218;-84
2023/12/08 07:58:41;;;;;;;8.60;7.70;;;;;;;2.03;69.88;94630.59;4981755;28;20207;-85
2023/12/08 08:01:14;;;;;;;8.83;7.30;;;;;;;1.98;69.74;94620.88;4980569;28;20736;-84
2023/12/08 08:03:42;;;;;;;8.57;7.47;;;;;;;2.04;69.67;94606.78;4978652;28;20200;-85
2023/12/08 08:06:10;;;;;;;8.40;7.07;;;;;;;2.08;69.50;94592.88;4972354;28;20204;-85
2023/12/08 08:08:36;;;;;;;9.30;7.50;;;;;;;2.10;69.73;94602.88;4977993;28;20235;-85
2023/12/08 08:11:09;;;;;;;8.47;7.20;;;;;;;2.13;69.44;94595.72;4978269;28;20314;-85
2023/12/08 08:13:41;;;;;;;10.63;7.40;;;;;;;2.16;69.54;94589.56;4964901;28;20262;-84
2023/12/08 08:16:10;;;;;;;8.57;7.30;;;;;;;2.20;69.59;94606.91;4958145;29;20205;-84
2023/12/08 08:18:36;;;;;;;9.67;8.07;;;;;;;2.21;69.68;94607.69;4963975;28;20638;-85
2023/12/08 08:21:09;;;;;;;9.37;8.27;;;;;;;2.28;69.68;94618.84;4974341;28;20233;-83
2023/12/08 08:23:41;;;;;;;9.57;7.83;;;;;;;2.23;69.82;94616.75;4975023;28;20204;-85
2023/12/08 08:26:07;;;;;;;10.43;8.13;;;;;;;2.28;70.21;94629.00;4958855;28;20203;-85
2023/12/08 08:28:34;;;;;;;10.57;7.73;;;;;;;2.37;70.02;94630.66;4955978;29;20228;-85
2023/12/08 08:31:01;;;;;;;8.97;7.63;;;;;;;2.47;69.90;94633.91;4969142;28;20220;-85
2023/12/08 08:33:28;;;;;;;61.03;45.73;;;;;;;2.52;69.94;94644.38;4961150;28;20571;-83
2023/12/08 08:36:14;;;;;;;21.40;17.13;;;;;;;2.50;70.91;94673.44;4959778;28;20268;-84
2023/12/08 08:38:51;;;;;;;13.50;10.93;;;;;;;2.47;70.64;94672.00;4974926;28;20228;-85
2023/12/08 08:41:25;;;;;;;12.40;8.80;;;;;;;2.46;71.26;94690.72;4968416;28;20216;-85
2023/12/08 08:43:53;;;;;;;12.77;10.03;;;;;;;2.53;71.31;94691.69;4955992;28;20193;-86
2023/12/08 08:46:20;;;;;;;11.13;9.47;;;;;;;2.57;70.99;94690.47;4962984;28;20200;-85
2023/12/08 08:48:46;;;;;;;9.93;8.93;;;;;;;2.62;70.64;94670.50;4965467;28;20223;-84
2023/12/08 08:51:16;;;;;;;9.97;8.57;;;;;;;2.59;70.20;94659.81;4960103;28;20219;-84
2023/12/08 08:53:47;;;;;;;10.97;9.10;;;;;;;2.45;71.18;94684.03;4958553;28;20253;-84
2023/12/08 08:56:14;;;;;;;10.70;9.43;;;;;;;2.54;70.91;94695.03;4973070;28;20200;-85
2023/12/08 08:58:40;;;;;;;11.47;9.37;;;;;;;2.54;70.70;94675.50;4974242;28;20192;-84
2023/12/08 09:01:07;;;;;;;11.40;9.23;;;;;;;2.58;70.77;94676.00;4967570;28;20221;-84
2023/12/08 09:03:34;;;;;;;10.83;8.80;;;;;;;2.65;70.74;94671.94;4974003;28;20222;-86
2023/12/08 09:06:01;;;;;;;11.80;8.87;;;;;;;2.62;70.54;94659.53;4972490;28;20203;-84
2023/12/08 09:08:32;;;;;;;11.33;9.13;;;;;;;2.61;70.26;94656.19;4983121;28;20219;-85
2023/12/08 09:11:01;;;;;;;10.63;8.80;;;;;;;2.55;70.67;94669.47;4974997;28;20224;-86
2023/12/08 09:13:30;;;;;;;10.83;9.40;;;;;;;2.58;70.98;94676.81;4968816;28;20204;-86
2023/12/08 09:15:57;;;;;;;10.53;8.63;;;;;;;2.55;71.04;94691.56;4980585;28;20254;-86
2023/12/08 09:18:23;;;;;;;10.40;8.93;;;;;;;2.55;71.24;94696.63;4992976;28;20196;-85
2023/12/08 09:20:55;;;;;;;9.03;8.03;;;;;;;2.68;71.30;94697.84;4977218;28;20224;-84
2023/12/08 09:23:22;;;;;;;10.63;8.33;;;;;;;2.84;70.65;94693.81;4972851;28;20210;-85
2023/12/08 09:25:50;;;;;;;11.03;8.13;;;;;;;2.96;70.21;94688.28;4959270;28;20616;-85
2023/12/08 09:28:18;;;;;;;24.63;20.83;;;;;;;3.06;70.23;94662.75;4971897;28;20227;-85
2023/12/08 09:30:44;;;;;;;12.93;10.87;;;;;;;2.99;69.22;94634.59;4972479;28;20774;-85
2023/12/08 09:33:28;;;;;;;13.77;11.97;;;;;;;2.94;69.73;94626.63;4966000;28;20218;-85
2023/12/08 09:35:56;;;;;;;12.93;8.93;;;;;;;2.95;69.54;94624.88;4964590;28;20223;-85
2023/12/08 09:38:26;;;;;;;10.27;8.20;;;;;;;3.01;69.13;94626.81;4966294;28;20760;-85
2023/12/08 09:41:01;;;;;;;12.83;9.67;;;;;;;3.06;69.03;94617.00;4963186;28;20220;-84
2023/12/08 09:43:37;;;;;;;12.93;9.77;;;;;;;3.09;69.14;94621.75;4973926;28;20270;-85
2023/12/08 09:46:09;;;;;;;15.47;9.50;;;;;;;3.14;69.45;94634.81;4984007;28;20265;-85
2023/12/08 09:48:45;;;;;;;12.77;9.60;;;;;;;3.25;69.30;94624.34;4978418;28;20252;-84
2023/12/08 09:51:15;;;;;;;12.37;9.07;;;;;;;3.35;69.37;94621.66;4977146;28;20215;-86
2023/12/08 09:53:45;;;;;;;11.23;9.13;;;;;;;3.43;69.04;94614.06;4984040;28;20576;-85
2023/12/08 09:56:20;;;;;;;12.20;9.13;;;;;;;3.51;69.17;94619.13;4985012;28;20201;-85
2023/12/08 09:58:52;;;;;;;11.83;8.37;;;;;;;3.47;69.05;94615.31;4978731;28;20286;-85
2023/12/08 10:01:18;;;;;;;10.77;9.27;;;;;;;3.50;69.42;94627.72;4989895;28;20270;-85
2023/12/08 10:03:47;;;;;;;10.27;9.00;;;;;;;3.44;70.16;94652.06;4986284;28;20200;-86
2023/12/08 10:06:24;;;;;;;12.23;9.20;;;;;;;3.51;69.88;94653.97;4982015;28;20193;-86
2023/12/08 10:08:53;;;;;;;13.83;9.50;;;;;;;3.57;70.10;94649.06;4990762;28;20234;-85
2023/12/08 10:11:24;;;;;;;13.23;9.70;;;;;;;3.62;69.81;94658.78;4989406;28;20251;-86
2023/12/08 10:13:51;;;;;;;10.90;9.73;;;;;;;3.66;70.17;94665.91;4982742;28;20193;-86
2023/12/08 10:16:28;;;;;;;14.90;10.00;;;;;;;3.67;70.31;94670.06;4977442;28;20222;-87
2023/12/08 10:19:04;;;;;;;11.33;9.47;;;;;;;3.70;70.52;94679.13;4972133;28;20220;-85
2023/12/08 10:21:31;;;;;;;12.13;9.37;;;;;;;3.70;70.28;94661.31;4959845;28;20197;-85
2023/12/08 10:24:09;;;;;;;13.50;10.10;;;;;;;3.73;69.96;94661.81;4968738;28;20312;-86
2023/12/08 10:29:21;;;;;;;11.60;9.30;;;;;;;3.62;69.79;94640.97;4959026;28;20284;-86
2023/12/08 10:31:52;;;;;;;12.60;9.70;;;;;;;3.54;69.65;94630.75;4975856;28;20267;-87
2023/12/08 10:37:46;;;;;;;18.07;12.20;;;;;;;3.28;70.22;94667.25;4951278;28;20291;-85
2023/12/08 10:40:15;;;;;;;18.83;11.63;;;;;;;3.38;70.59;94678.13;4958629;28;20266;-85
2023/12/08 10:42:45;;;;;;;15.57;12.47;;;;;;;3.44;70.81;94694.53;4963333;28;20184;-85
2023/12/08 10:45:13;;;;;;;19.63;13.47;;;;;;;3.55;70.49;94693.44;4975076;28;20192;-85
2023/12/08 10:47:49;;;;;;;35.93;28.43;;;;;;;3.62;70.12;94667.22;4975978;28;20758;-86
2023/12/08 10:50:16;;;;;;;29.13;23.57;;;;;;;3.63;70.33;94671.34;4975837;28;20719;-86
2023/12/08 10:52:45;;;;;;;23.97;19.30;;;;;;;3.67;70.25;94667.50;4976331;28;20239;-85
2023/12/08 10:55:15;;;;;;;19.67;16.33;;;;;;;3.73;70.17;94659.25;4963658;28;20201;-86
2023/12/08 10:57:55;;;;;;;19.37;15.60;;;;;;;3.83;69.90;94650.69;4958367;28;20660;-86
2023/12/08 11:00:25;;;;;;;20.00;16.00;;;;;;;3.85;70.06;94649.56;4970494;28;20250;-85
2023/12/08 11:02:53;;;;;;;20.27;15.40;;;;;;;3.91;70.33;94661.66;4972163;28;20200;-85
2023/12/08 11:05:38;;;;;;;17.10;14.33;;;;;;;3.98;70.40;94669.47;4958839;28;20885;-84
2023/12/08 11:08:12;;;;;;;18.13;14.00;;;;;;;4.03;70.47;94664.72;4978841;28;20278;-85
2023/12/08 11:10:48;;;;;;;17.37;13.80;;;;;;;4.07;70.39;94658.31;4960689;28;20234;-84
2023/12/08 11:13:27;;;;;;;17.70;13.80;;;;;;;4.10;70.35;94648.63;4981393;28;20613;-84
2023/12/08 11:16:18;;;;;;;17.27;14.13;;;;;;;4.15;70.01;94643.84;4974731;28;20650;-84
2023/12/08 11:18:45;;;;;;;17.10;14.07;;;;;;;4.16;70.15;94645.44;4960229;28;20199;-84
2023/12/08 11:21:12;;;;;;;23.50;14.40;;;;;;;4.17;69.81;94658.97;4973204;28;20298;-83
2023/12/08 11:23:43;;;;;;;16.50;13.87;;;;;;;4.09;70.07;94658.97;4983151;28;20208;-84
2023/12/08 11:26:21;;;;;;;16.37;14.03;;;;;;;4.01;70.01;94661.53;4975803;28;20192;-84
2023/12/08 11:29:08;;;;;;;18.80;14.37;;;;;;;4.04;69.64;94653.56;4956095;28;20225;-85
2023/12/08 11:31:47;;;;;;;18.17;13.03;;;;;;;4.01;72.20;94759.09;4956968;28;20200;-85
2023/12/08 11:34:26;;;;;;;17.23;13.60;;;;;;;4.03;70.46;94690.97;4965487;28;20214;-85
2023/12/08 11:36:52;;;;;;;16.17;13.30;;;;;;;4.04;70.66;94686.69;4972127;28;20214;-85
2023/12/08 11:39:44;;;;;;;16.60;13.57;;;;;;;4.34;85.52;95052.94;4977323;28;20204;-85
2023/12/08 11:42:12;;;;;;;17.87;14.17;;;;;;;4.49;75.38;94763.41;4989163;28;20211;-85
2023/12/08 11:44:46;;;;;;;18.07;13.30;;;;;;;4.54;72.06;94637.25;4977941;28;20208;-85
2023/12/08 11:47:17;;;;;;;15.80;13.50;;;;;;;4.56;70.90;94594.56;4974851;28;20211;-84
2023/12/08 11:49:46;;;;;;;18.67;13.33;;;;;;;4.55;70.47;94567.50;4964001;28;20244;-85
2023/12/08 11:52:20;;;;;;;15.73;12.90;;;;;;;4.50;70.02;94550.94;4967042;28;20235;-84